createdAt,value
2023-05-18T00:00:46.814Z,98845.38
2023-05-18T00:03:15.545Z,98839.97
2023-05-18T00:05:44.148Z,98837.28
2023-05-18T00:08:12.772Z,98837.28
2023-05-18T00:10:42.606Z,98847.22
2023-05-18T00:13:11.255Z,98836.47
2023-05-18T00:15:39.735Z,98843.66
2023-05-18T00:18:08.684Z,98849.06
2023-05-18T00:20:37.896Z,98842.69
2023-05-18T00:23:10.607Z,98850.56
2023-05-18T00:25:39.181Z,98841.66
2023-05-18T00:28:09.138Z,98849.38
2023-05-18T00:30:37.926Z,98846.03
2023-05-18T00:33:06.631Z,98843.50
2023-05-18T00:35:35.073Z,98850.91
2023-05-18T00:38:04.055Z,98845.53
2023-05-18T00:40:32.459Z,98844.69
2023-05-18T00:43:01.194Z,98851.75
2023-05-18T00:45:31.338Z,98849.25
2023-05-18T00:47:59.980Z,98847.38
2023-05-18T00:50:28.669Z,98849.06
2023-05-18T00:52:57.134Z,98860.84
2023-05-18T00:55:28.032Z,98862.69
2023-05-18T00:57:58.019Z,98859.16
2023-05-18T01:00:26.626Z,98859.16
2023-05-18T01:02:57.623Z,98860.00
2023-05-18T01:05:27.349Z,98860.16
2023-05-18T01:07:56.795Z,98869.94
2023-05-18T01:10:25.208Z,98870.91
2023-05-18T01:12:57.548Z,98868.91
2023-05-18T01:15:32.593Z,98873.47
2023-05-18T01:18:15.234Z,98876.16
2023-05-18T01:20:47.919Z,98873.63
2023-05-18T01:24:06.212Z,98883.38
2023-05-18T01:26:37.661Z,98877.16
2023-05-18T01:29:08.736Z,98883.38
2023-05-18T01:31:37.459Z,98883.38
2023-05-18T01:34:06.270Z,98886.09
2023-05-18T01:36:34.696Z,98891.47
2023-05-18T01:39:03.802Z,98893.31
2023-05-18T01:41:33.768Z,98894.16
2023-05-18T01:44:07.262Z,98895.16
2023-05-18T01:46:41.296Z,98891.47
2023-05-18T01:49:14.610Z,98895.16
2023-05-18T01:51:46.753Z,98895.16
2023-05-18T01:54:17.841Z,98897.84
2023-05-18T01:56:46.374Z,98897.84
2023-05-18T01:59:16.402Z,98898.69
2023-05-18T02:01:45.527Z,98905.91
2023-05-18T02:04:13.973Z,98905.91
2023-05-18T02:06:42.391Z,98913.34
2023-05-18T02:09:10.943Z,98900.72
2023-05-18T02:11:39.412Z,98907.94
2023-05-18T02:14:07.915Z,98906.09
2023-05-18T02:16:39.321Z,98910.63
2023-05-18T02:19:08.154Z,98913.34
2023-05-18T02:21:36.610Z,98913.34
2023-05-18T02:24:06.032Z,98909.78
2023-05-18T02:26:34.420Z,98914.31
2023-05-18T02:29:02.981Z,98920.53
2023-05-18T02:31:31.793Z,98924.09
2023-05-18T02:34:01.622Z,98914.31
2023-05-18T02:36:37.681Z,98911.63
2023-05-18T02:39:06.685Z,98918.03
2023-05-18T02:41:35.148Z,98916.19
2023-05-18T02:44:04.189Z,98920.72
2023-05-18T02:46:32.634Z,98920.72
2023-05-18T02:49:02.785Z,98920.72
2023-05-18T02:51:31.492Z,98924.25
2023-05-18T02:53:59.938Z,98922.41
2023-05-18T02:56:28.852Z,98926.09
2023-05-18T02:58:58.520Z,98926.09
2023-05-18T03:01:27.643Z,98928.78
2023-05-18T03:03:57.849Z,98920.72
2023-05-18T03:06:30.687Z,98930.66
2023-05-18T03:08:59.276Z,98934.19
2023-05-18T03:11:27.709Z,98935.84
2023-05-18T03:13:56.431Z,98944.94
2023-05-18T03:16:28.811Z,98942.25
2023-05-18T03:18:59.472Z,98940.53
2023-05-18T03:21:34.211Z,98939.72
2023-05-18T03:24:02.984Z,98949.63
2023-05-18T03:26:32.006Z,98948.63
2023-05-18T03:29:01.405Z,98951.31
2023-05-18T03:31:30.247Z,98950.47
2023-05-18T03:33:58.647Z,98955.84
2023-05-18T03:36:30.324Z,98957.72
2023-05-18T06:16:17.883Z,99055.97
2023-05-18T06:18:46.458Z,99062.31
2023-05-18T06:21:14.905Z,99055.59
2023-05-18T06:23:44.657Z,99061.81
2023-05-18T06:26:13.078Z,99066.53
2023-05-18T06:28:41.738Z,99061.16
2023-05-18T06:31:10.504Z,99065.56
2023-05-18T06:33:40.289Z,99066.06
2023-05-18T06:36:09.812Z,99067.72
2023-05-18T06:38:38.222Z,99067.72
2023-05-18T06:41:06.809Z,99065.38
2023-05-18T06:43:35.389Z,99065.19
2023-05-18T06:46:03.866Z,99074.78
2023-05-18T06:48:32.513Z,99073.53
2023-05-18T06:51:02.255Z,99067.47
2023-05-18T06:53:32.053Z,99072.88
2023-05-18T06:56:00.911Z,99067.31
2023-05-18T06:58:29.391Z,99067.31
2023-05-18T07:00:58.300Z,99074.38
2023-05-18T07:03:26.860Z,99075.38
2023-05-18T07:05:55.306Z,99078.06
2023-05-18T07:08:25.437Z,99073.53
2023-05-18T07:10:53.816Z,99081.28
2023-05-18T07:13:22.425Z,99083.84
2023-05-18T07:15:50.877Z,99083.13
2023-05-18T07:18:19.557Z,99081.44
2023-05-18T07:20:48.143Z,99087.38
2023-05-18T07:23:16.586Z,99090.53
2023-05-18T07:25:46.548Z,99091.03
2023-05-18T07:28:14.970Z,99095.91
2023-05-18T07:30:43.554Z,99095.72
2023-05-18T07:33:12.070Z,99101.94
2023-05-18T07:35:40.543Z,99097.59
2023-05-18T07:38:09.148Z,99105.50
2023-05-18T07:40:40.092Z,99104.63
2023-05-18T07:43:10.570Z,99101.78
2023-05-18T07:45:39.044Z,99111.44
2023-05-18T07:48:08.047Z,99110.06
2023-05-18T07:50:37.273Z,99105.56
2023-05-18T07:53:05.752Z,99107.25
2023-05-18T07:55:34.438Z,99118.84
2023-05-18T07:58:03.131Z,99113.63
2023-05-18T08:00:32.954Z,99109.94
2023-05-18T08:03:02.258Z,99105.06
2023-05-18T08:05:31.513Z,99105.25
2023-05-18T08:08:00.259Z,99107.94
2023-05-18T08:10:28.880Z,99113.47
2023-05-18T08:12:57.523Z,99110.63
2023-05-18T08:15:26.187Z,99114.28
2023-05-18T08:17:57.376Z,99112.63
2023-05-18T08:20:30.279Z,99110.63
2023-05-18T08:22:59.301Z,99116.00
2023-05-18T08:25:27.777Z,99123.25
2023-05-18T08:27:56.198Z,99112.78
2023-05-18T08:30:25.897Z,99111.94
2023-05-18T08:32:56.461Z,99119.03
2023-05-18T08:35:25.298Z,99110.25
2023-05-18T08:37:53.734Z,99121.19
2023-05-18T08:40:22.532Z,99116.47
2023-05-18T08:42:59.376Z,99118.84
2023-05-18T08:45:33.707Z,99118.84
2023-05-18T08:48:03.719Z,99125.94
2023-05-18T08:50:33.933Z,99127.75
2023-05-18T08:53:04.126Z,99115.47
2023-05-18T08:55:34.998Z,99121.72
2023-05-18T08:58:03.631Z,99125.75
2023-05-18T09:00:32.452Z,99122.06
2023-05-18T09:03:03.632Z,99126.91
2023-05-18T09:05:32.777Z,99126.09
2023-05-18T09:08:01.760Z,99114.63
2023-05-18T09:10:30.197Z,99118.16
2023-05-18T09:12:58.774Z,99123.53
2023-05-18T09:15:28.127Z,99120.00
2023-05-18T09:17:56.971Z,99117.31
2023-05-18T09:20:27.084Z,99117.31
2023-05-18T09:22:55.547Z,99121.88
2023-05-18T09:25:24.211Z,99127.25
2023-05-18T09:27:53.427Z,99133.47
2023-05-18T09:30:22.095Z,99126.22
2023-05-18T09:32:52.403Z,99121.88
2023-05-18T09:35:20.999Z,99128.91
2023-05-18T09:37:52.485Z,99124.41
2023-05-18T09:40:21.189Z,99128.09
2023-05-18T09:42:50.077Z,99128.78
2023-05-18T09:45:19.878Z,99126.44
2023-05-18T09:47:48.603Z,99127.75
2023-05-18T09:50:19.234Z,99127.94
2023-05-18T09:52:49.439Z,99134.31
2023-05-18T09:55:19.910Z,99135.16
2023-05-18T09:57:49.202Z,99129.78
2023-05-18T10:00:19.499Z,99117.31
2023-05-18T10:02:50.725Z,99122.69
2023-05-18T10:05:22.902Z,99124.41
2023-05-18T10:07:52.502Z,99120.00
2023-05-18T10:10:24.149Z,99130.78
2023-05-18T10:12:53.027Z,99135.31
2023-05-18T10:15:23.268Z,99125.38
2023-05-18T10:17:53.369Z,99127.25
2023-05-18T10:20:24.335Z,99132.63
2023-05-18T10:22:53.070Z,99121.88
2023-05-18T10:25:24.180Z,99128.91
2023-05-18T10:27:57.800Z,99128.91
2023-05-18T10:30:26.307Z,99134.31
2023-05-18T10:32:54.837Z,99129.78
2023-05-18T10:35:23.996Z,99127.25
2023-05-18T10:37:53.156Z,99126.22
2023-05-18T10:40:23.220Z,99129.47
2023-05-18T10:42:51.968Z,99120.38
2023-05-18T10:45:20.582Z,99118.16
2023-05-18T10:47:53.646Z,99121.88
2023-05-18T10:50:22.897Z,99124.22
2023-05-18T10:52:51.452Z,99117.16
2023-05-18T10:55:20.172Z,99127.09
2023-05-18T10:57:52.623Z,99118.16
2023-05-18T11:00:21.519Z,99118.16
2023-05-18T11:02:50.072Z,99123.53
2023-05-18T11:05:24.883Z,99118.16
2023-05-18T11:08:00.796Z,99116.34
2023-05-18T11:10:36.185Z,99125.25
2023-05-18T11:13:07.371Z,99122.69
2023-05-18T11:16:05.255Z,99128.09
2023-05-18T11:18:45.819Z,99119.84
2023-05-18T11:21:35.784Z,99124.41
2023-05-18T11:24:31.853Z,99124.56
2023-05-18T11:27:03.449Z,99123.72
2023-05-18T11:29:36.987Z,99125.56
2023-05-18T11:32:05.723Z,99133.47
2023-05-18T11:34:42.512Z,99121.03
2023-05-18T11:37:11.133Z,99125.94
2023-05-18T11:39:48.107Z,99136.00
2023-05-18T11:42:19.628Z,99135.16
2023-05-18T11:44:55.779Z,99138.69
2023-05-18T11:47:25.636Z,99130.63
2023-05-18T11:49:54.422Z,99138.84
2023-05-18T11:52:24.852Z,99139.69
2023-05-18T11:54:54.384Z,99141.38
2023-05-18T11:57:26.850Z,99136.84
2023-05-18T11:59:58.711Z,99146.78
2023-05-18T12:02:29.878Z,99145.06
2023-05-18T12:05:00.392Z,99145.94
2023-05-18T12:07:29.874Z,99145.06
2023-05-18T12:10:00.104Z,99151.31
2023-05-18T12:12:29.273Z,99153.00
2023-05-18T12:15:00.300Z,99155.53
2023-05-18T12:17:40.008Z,99147.47
2023-05-18T12:20:11.368Z,99151.81
2023-05-18T12:22:40.535Z,99155.34
2023-05-18T12:25:10.992Z,99150.16
2023-05-18T12:27:40.853Z,99160.91
2023-05-18T12:30:14.149Z,99151.97
2023-05-18T12:32:46.342Z,99160.91
2023-05-18T12:35:15.093Z,99162.75
2023-05-18T12:37:45.821Z,99151.97
2023-05-18T12:40:17.169Z,99153.81
2023-05-18T12:42:54.227Z,99149.28
2023-05-18T12:45:28.040Z,99157.34
2023-05-18T12:47:57.406Z,99154.66
2023-05-18T12:50:27.138Z,99159.75
2023-05-18T12:52:57.230Z,99159.56
2023-05-18T12:55:26.755Z,99157.06
2023-05-18T12:58:04.416Z,99153.69
2023-05-18T13:00:37.847Z,99153.69
2023-05-18T13:03:13.628Z,99154.66
2023-05-18T13:05:45.015Z,99155.53
2023-05-18T13:08:16.458Z,99153.69
2023-05-18T13:10:45.637Z,99155.53
2023-05-18T13:13:16.778Z,99155.19
2023-05-18T13:15:46.877Z,99156.88
2023-05-18T13:18:15.555Z,99161.78
2023-05-18T13:20:48.346Z,99150.16
2023-05-18T13:23:18.207Z,99153.50
2023-05-18T13:25:46.926Z,99151.13
2023-05-18T13:28:16.698Z,99157.53
2023-05-18T13:30:48.410Z,99154.84
2023-05-18T13:33:18.813Z,99153.81
2023-05-18T13:35:48.664Z,99154.84
2023-05-18T13:38:17.081Z,99150.44
2023-05-18T13:40:45.949Z,99159.06
2023-05-18T13:43:14.448Z,99161.75
2023-05-18T13:45:43.524Z,99162.25
2023-05-18T13:48:14.428Z,99147.78
2023-05-18T13:50:43.147Z,99153.34
2023-05-18T13:53:11.745Z,99149.63
2023-05-18T13:55:40.186Z,99151.50
2023-05-18T13:58:08.878Z,99153.50
2023-05-18T14:00:38.143Z,99156.38
2023-05-18T14:03:06.670Z,99153.50
2023-05-18T14:05:37.148Z,99148.13
2023-05-18T14:08:06.177Z,99151.81
2023-05-18T14:10:35.027Z,99151.00
2023-05-18T14:13:03.465Z,99152.50
2023-05-18T14:15:31.901Z,99148.81
2023-05-18T14:18:00.393Z,99147.13
2023-05-18T14:20:29.970Z,99149.81
2023-05-18T14:23:00.492Z,99148.13
2023-05-18T14:25:28.955Z,99139.38
2023-05-18T14:27:57.445Z,99139.38
2023-05-18T14:30:25.914Z,99143.91
2023-05-18T14:32:54.763Z,99147.28
2023-05-18T14:35:23.340Z,99135.69
2023-05-18T14:37:51.748Z,99141.06
2023-05-18T14:40:23.003Z,99143.75
2023-05-18T14:42:53.673Z,99134.84
2023-05-18T14:45:22.428Z,99130.44
2023-05-18T14:47:50.988Z,99147.59
2023-05-18T14:50:19.526Z,99140.38
2023-05-18T14:52:48.006Z,99146.44
2023-05-18T14:55:16.863Z,99149.13
2023-05-18T14:57:46.836Z,99147.28
2023-05-18T15:00:16.628Z,99145.28
2023-05-18T15:02:45.155Z,99153.50
2023-05-18T15:05:14.122Z,99156.38
2023-05-18T15:07:42.621Z,99150.16
2023-05-18T15:10:11.895Z,99156.19
2023-05-18T15:12:40.655Z,99155.56
2023-05-18T15:15:12.129Z,99158.91
2023-05-18T15:17:40.817Z,99157.09
2023-05-18T15:20:10.865Z,99165.47
2023-05-18T15:22:41.512Z,99147.84
2023-05-18T15:25:10.812Z,99156.44
2023-05-18T15:27:39.415Z,99158.75
2023-05-18T15:30:13.100Z,99164.47
2023-05-18T15:32:42.621Z,99157.59
2023-05-18T15:35:11.527Z,99164.16
2023-05-18T15:37:39.992Z,99162.13
2023-05-18T15:40:10.335Z,99162.66
2023-05-18T15:42:38.995Z,99165.50
2023-05-18T15:45:10.972Z,99154.72
2023-05-18T15:47:39.946Z,99164.31
2023-05-18T15:50:09.474Z,99160.97
2023-05-18T15:52:37.948Z,99164.66
2023-05-18T15:55:07.998Z,99166.50
2023-05-18T15:57:36.533Z,99170.72
2023-05-18T16:00:05.794Z,99165.69
2023-05-18T16:02:36.043Z,99159.81
2023-05-18T16:05:05.088Z,99165.81
2023-05-18T16:07:33.784Z,99173.56
2023-05-18T16:10:02.275Z,99175.59
2023-05-18T16:12:31.008Z,99170.38
2023-05-18T16:14:59.514Z,99178.66
2023-05-18T16:17:28.070Z,99178.81
2023-05-18T16:19:58.202Z,99174.06
2023-05-18T16:22:26.757Z,99181.47
2023-05-18T16:24:57.769Z,99174.22
2023-05-18T16:27:26.322Z,99181.47
2023-05-18T16:29:54.747Z,99185.47
2023-05-18T16:32:24.835Z,99184.47
2023-05-18T16:34:53.426Z,99183.13
2023-05-18T16:37:23.890Z,99185.69
2023-05-18T16:39:52.331Z,99181.47
2023-05-18T16:42:22.397Z,99178.63
2023-05-18T16:44:51.215Z,99180.16
2023-05-18T16:47:19.635Z,99181.63
2023-05-18T16:49:48.354Z,99188.22
2023-05-18T16:52:18.430Z,99187.22
2023-05-18T16:54:48.504Z,99189.53
2023-05-18T16:57:17.377Z,99190.38
2023-05-18T16:59:45.922Z,99197.28
2023-05-18T17:02:14.766Z,99191.22
2023-05-18T17:04:44.893Z,99199.00
2023-05-18T17:07:14.150Z,99197.59
2023-05-18T17:09:42.937Z,99193.59
2023-05-18T17:12:13.102Z,99199.13
2023-05-18T17:14:41.801Z,99190.56
2023-05-18T17:17:10.445Z,99195.25
2023-05-18T17:19:40.288Z,99196.22
2023-05-18T17:22:10.037Z,99204.31
2023-05-18T17:24:38.615Z,99192.88
2023-05-18T17:27:07.534Z,99198.28
2023-05-18T17:29:37.779Z,99192.03
2023-05-18T17:32:07.313Z,99201.78
2023-05-18T17:34:35.804Z,99206.34
2023-05-18T17:37:05.030Z,99202.81
2023-05-18T17:39:33.562Z,99198.41
2023-05-18T17:42:03.438Z,99191.19
2023-05-18T17:44:32.056Z,99200.25
2023-05-18T17:47:02.255Z,99193.22
2023-05-18T17:49:32.649Z,99201.28
2023-05-18T17:52:01.181Z,99193.53
2023-05-18T17:54:29.719Z,99194.75
2023-05-18T17:56:58.365Z,99202.97
2023-05-18T17:59:26.959Z,99195.03
2023-05-18T18:01:55.478Z,99197.72
2023-05-18T18:04:25.674Z,99202.25
2023-05-18T18:06:54.780Z,99191.69
2023-05-18T18:09:23.572Z,99193.50
2023-05-18T18:11:51.964Z,99195.72
2023-05-18T18:14:20.692Z,99189.53
2023-05-18T18:16:49.851Z,99197.09
2023-05-18T18:19:18.577Z,99191.81
2023-05-18T18:21:48.609Z,99195.00
2023-05-18T18:24:17.069Z,99195.69
2023-05-18T18:26:45.721Z,99193.81
2023-05-18T18:29:14.126Z,99190.16
2023-05-18T18:31:42.604Z,99194.88
2023-05-18T18:34:12.039Z,99202.25
2023-05-18T18:36:41.068Z,99194.19
2023-05-18T18:39:11.405Z,99192.88
2023-05-18T18:41:39.866Z,99192.88
2023-05-18T18:44:08.498Z,99194.88
2023-05-18T18:46:37.152Z,99202.25
2023-05-18T18:49:05.739Z,99199.56
2023-05-18T18:51:34.455Z,99203.78
2023-05-18T18:54:03.026Z,99204.16
2023-05-18T18:56:32.898Z,99212.03
2023-05-18T18:59:01.571Z,99204.63
2023-05-18T19:01:30.189Z,99202.63
2023-05-18T19:03:59.134Z,99202.97
2023-05-18T19:06:27.772Z,99203.75
2023-05-18T19:08:56.378Z,99202.59
2023-05-18T19:11:24.878Z,99198.88
2023-05-18T19:13:54.961Z,99210.19
2023-05-18T19:16:23.564Z,99204.97
2023-05-18T19:18:52.274Z,99207.31
2023-05-18T19:21:21.687Z,99208.19
2023-05-18T19:23:50.166Z,99211.72
2023-05-18T19:26:18.718Z,99215.72
2023-05-18T19:28:47.237Z,99212.88
2023-05-18T19:31:17.182Z,99220.63
2023-05-18T19:33:45.742Z,99210.19
2023-05-18T19:36:14.400Z,99211.34
2023-05-18T19:38:42.885Z,99207.84
2023-05-18T19:41:12.807Z,99203.44
2023-05-18T19:43:41.242Z,99208.81
2023-05-18T19:46:09.901Z,99211.03
2023-05-18T19:48:39.911Z,99197.56
2023-05-18T19:51:08.639Z,99200.25
2023-05-18T19:53:37.909Z,99200.13
2023-05-18T19:56:07.070Z,99215.56
2023-05-18T19:58:35.612Z,99213.88
2023-05-18T20:01:04.420Z,99219.25
2023-05-18T20:03:33.566Z,99211.34
2023-05-18T20:06:05.198Z,99227.50
2023-05-18T20:08:33.968Z,99219.44
2023-05-18T20:11:03.444Z,99217.72
2023-05-18T20:13:31.895Z,99228.50
2023-05-18T20:16:00.584Z,99231.19
2023-05-18T20:18:29.238Z,99219.56
2023-05-18T20:20:57.673Z,99226.81
2023-05-18T20:23:27.727Z,99217.06
2023-05-18T20:25:56.272Z,99225.97
2023-05-18T20:28:26.444Z,99224.97
2023-05-18T20:30:54.880Z,99226.81
2023-05-18T20:33:23.398Z,99217.56
2023-05-18T20:35:52.083Z,99223.81
2023-05-18T20:38:20.530Z,99225.50
2023-05-18T20:40:51.180Z,99231.88
2023-05-18T20:43:19.976Z,99227.66
2023-05-18T20:45:49.658Z,99222.13
2023-05-18T20:48:24.904Z,99229.19
2023-05-18T20:50:53.474Z,99232.88
2023-05-18T20:53:21.996Z,99215.03
2023-05-18T20:55:54.504Z,99225.81
2023-05-18T20:58:23.009Z,99230.19
2023-05-18T21:00:52.210Z,99225.81
2023-05-18T21:03:22.449Z,99230.34
2023-05-18T21:05:51.873Z,99226.66
2023-05-18T21:08:20.829Z,99234.75
2023-05-18T21:10:49.279Z,99225.81
2023-05-18T21:13:19.324Z,99213.22
2023-05-18T21:15:48.023Z,99220.41
2023-05-18T21:18:16.975Z,99222.13
2023-05-18T21:20:45.445Z,99218.59
2023-05-18T21:23:13.816Z,99215.91
2023-05-18T21:25:42.245Z,99225.50
2023-05-18T21:28:10.859Z,99230.88
2023-05-18T21:30:41.113Z,99229.34
2023-05-18T21:33:09.746Z,99230.19
2023-05-18T21:35:38.233Z,99219.25
2023-05-18T21:38:06.606Z,99224.63
2023-05-18T21:40:36.353Z,99225.66
2023-05-18T21:43:04.756Z,99228.34
2023-05-18T21:45:33.626Z,99227.50
2023-05-18T21:48:03.566Z,99232.88
2023-05-18T21:50:35.375Z,99231.19
2023-05-18T21:53:04.337Z,99232.06
2023-05-18T21:55:33.116Z,99231.19
2023-05-18T21:58:01.665Z,99226.81
2023-05-18T22:00:30.670Z,99231.19
2023-05-18T22:02:59.860Z,99224.13
2023-05-18T22:05:29.757Z,99229.50
2023-05-18T22:07:59.168Z,99238.41
2023-05-18T22:10:27.739Z,99232.34
2023-05-18T22:12:56.257Z,99226.81
2023-05-18T22:15:24.865Z,99227.84
2023-05-18T22:17:54.541Z,99223.44
2023-05-18T22:20:24.098Z,99229.66
2023-05-18T22:22:53.968Z,99234.19
2023-05-18T22:25:22.601Z,99235.03
2023-05-18T22:27:51.418Z,99234.19
2023-05-18T22:30:20.816Z,99230.66
2023-05-18T22:32:49.427Z,99222.78
2023-05-18T22:35:18.063Z,99226.13
2023-05-18T22:37:46.851Z,99229.50
2023-05-18T22:40:16.739Z,99220.75
2023-05-18T22:42:45.289Z,99225.28
2023-05-18T22:45:14.045Z,99220.09
2023-05-18T22:47:45.318Z,99211.13
2023-05-18T22:50:14.010Z,99220.19
2023-05-18T22:52:42.422Z,99214.81
2023-05-18T22:55:13.452Z,99216.66
2023-05-18T22:57:43.633Z,99214.97
2023-05-18T23:00:14.411Z,99217.66
2023-05-18T23:02:43.170Z,99219.34
2023-05-18T23:05:11.874Z,99218.53
2023-05-18T23:07:42.045Z,99224.88
2023-05-18T23:10:12.254Z,99221.22
2023-05-18T23:12:42.693Z,99216.81
2023-05-18T23:15:11.953Z,99219.50
2023-05-18T23:17:40.564Z,99215.97
2023-05-18T23:20:11.614Z,99211.59
2023-05-18T23:22:40.123Z,99215.97
2023-05-18T23:25:10.439Z,99224.06
2023-05-18T23:27:38.829Z,99217.00
2023-05-18T23:30:10.097Z,99217.00
2023-05-18T23:32:39.444Z,99212.44
2023-05-18T23:35:10.776Z,99217.81
2023-05-18T23:37:43.069Z,99208.91
2023-05-18T23:40:13.772Z,99217.00
2023-05-18T23:42:43.110Z,99217.97
2023-05-18T23:45:15.491Z,99212.59
2023-05-18T23:47:44.688Z,99208.03
2023-05-18T23:50:15.846Z,99201.84
2023-05-18T23:52:44.563Z,99204.69
2023-05-18T23:55:13.593Z,99198.31
2023-05-18T23:57:42.769Z,99192.09
